createdAt,value
2022-12-01T00:02:22.265Z,102827.56
2022-12-01T00:04:52.583Z,102821.66
2022-12-01T00:07:21.305Z,102827.19
2022-12-01T00:10:09.493Z,102819.38
2022-12-01T00:12:44.080Z,102824.66
2022-12-01T00:15:13.706Z,102820.91
2022-12-01T00:17:44.590Z,102817.41
2022-12-01T00:20:13.729Z,102816.59
2022-12-01T00:22:50.758Z,102827.50
2022-12-01T00:25:22.225Z,102819.66
2022-12-01T00:27:53.824Z,102822.75
2022-12-01T00:30:26.780Z,102818.59
2022-12-01T00:32:57.560Z,102819.63
2022-12-01T00:35:46.423Z,102817.16
2022-12-01T00:38:16.866Z,102823.50
2022-12-01T00:40:45.548Z,102825.34
2022-12-01T00:43:19.509Z,102822.91
2022-12-01T00:45:50.083Z,102819.16
2022-12-01T00:48:22.146Z,102818.81
2022-12-01T00:50:54.982Z,102811.41
2022-12-01T00:53:25.384Z,102800.53
2022-12-01T00:55:56.464Z,102795.38
2022-12-01T00:58:26.826Z,102810.56
2022-12-01T01:01:03.461Z,102815.91
2022-12-01T01:03:33.943Z,102811.63
2022-12-01T01:06:18.305Z,102813.66
2022-12-01T01:08:54.584Z,102813.66
2022-12-01T01:11:27.433Z,102808.13
2022-12-01T01:13:55.744Z,102802.38
2022-12-01T01:16:24.521Z,102805.09
2022-12-01T01:18:59.342Z,102806.53
2022-12-01T01:21:28.467Z,102809.63
2022-12-01T01:23:57.585Z,102807.97
2022-12-01T01:26:29.506Z,102803.28
2022-12-01T01:29:00.225Z,102806.59
2022-12-01T01:31:32.512Z,102807.59
2022-12-01T01:34:01.230Z,102812.53
2022-12-01T01:36:29.930Z,102813.91
2022-12-01T01:38:58.347Z,102812.31
2022-12-01T01:41:26.943Z,102809.88
2022-12-01T01:44:27.598Z,102803.34
2022-12-01T01:46:56.744Z,102811.53
2022-12-01T01:49:27.582Z,102802.13
2022-12-01T01:51:58.993Z,102800.25
2022-12-01T01:54:38.104Z,102794.28
2022-12-01T01:57:12.314Z,102794.28
2022-12-01T01:59:54.385Z,102797.81
2022-12-01T02:02:23.017Z,102803.38
2022-12-01T02:04:57.829Z,102803.63
2022-12-01T02:07:26.930Z,102801.00
2022-12-01T02:10:00.965Z,102811.28
2022-12-01T02:18:33.384Z,102807.19
2022-12-01T02:27:05.144Z,102807.19
2022-12-01T02:33:12.504Z,102807.22
2022-12-01T02:41:43.629Z,102805.00
2022-12-01T02:44:43.064Z,102809.31
2022-12-01T02:50:08.784Z,102807.06
2022-12-01T02:52:39.354Z,102797.38
2022-12-01T02:55:11.384Z,102802.72
2022-12-01T02:57:43.142Z,102809.53
2022-12-01T03:00:14.519Z,102797.00
2022-12-01T03:16:00.657Z,102793.72
2022-12-01T03:19:05.150Z,102801.94
2022-12-01T03:21:46.333Z,102796.59
2022-12-01T03:24:36.668Z,102791.44
2022-12-01T03:27:10.519Z,102787.75
2022-12-01T03:29:54.127Z,102790.84
2022-12-01T03:32:43.310Z,102794.13
2022-12-01T03:35:20.770Z,102791.25
2022-12-01T03:41:06.228Z,102787.34
2022-12-01T03:43:43.110Z,102782.41
2022-12-01T03:46:42.354Z,102784.88
2022-12-01T03:49:15.161Z,102788.81
2022-12-01T03:57:31.597Z,102785.50
2022-12-01T04:00:08.676Z,102787.34
2022-12-01T04:03:23.249Z,102779.91
2022-12-01T04:05:56.085Z,102787.94
2022-12-01T04:08:34.443Z,102780.97
2022-12-01T04:11:23.009Z,102777.84
2022-12-01T04:13:54.031Z,102784.03
2022-12-01T04:16:25.862Z,102786.09
2022-12-01T04:19:02.470Z,102778.44
2022-12-01T04:21:59.878Z,102786.09
2022-12-01T04:24:33.738Z,102785.47
2022-12-01T04:27:14.472Z,102786.09
2022-12-01T04:29:49.709Z,102785.88
2022-12-01T04:32:31.071Z,102786.69
2022-12-01T04:35:23.432Z,102784.03
2022-12-01T04:38:09.314Z,102789.19
2022-12-01T04:40:55.712Z,102795.38
2022-12-01T04:43:31.272Z,102790.22
2022-12-01T04:46:11.770Z,102788.34
2022-12-01T04:48:44.710Z,102785.50
2022-12-01T04:51:24.511Z,102791.69
2022-12-01T04:54:03.634Z,102798.47
2022-12-01T04:56:44.352Z,102789.19
2022-12-01T04:59:14.399Z,102792.88
2022-12-01T05:01:52.472Z,102799.06
2022-12-01T05:04:33.758Z,102791.22
2022-12-01T05:07:18.671Z,102796.16
2022-12-01T05:09:56.151Z,102794.50
2022-12-01T05:12:25.792Z,102795.97
2022-12-01T05:14:58.310Z,102798.47
2022-12-01T05:17:36.992Z,102806.91
2022-12-01T05:20:40.680Z,102795.97
2022-12-01T05:23:17.134Z,102806.50
2022-12-01T05:25:58.294Z,102801.97
2022-12-01T05:28:37.004Z,102814.72
2022-12-01T05:31:13.425Z,102813.09
2022-12-01T05:33:59.885Z,102814.09
2022-12-01T05:36:36.161Z,102820.06
2022-12-01T05:39:09.907Z,102821.72
2022-12-01T05:41:41.408Z,102821.72
2022-12-01T05:44:16.484Z,102823.56
2022-12-01T05:46:55.304Z,102819.28
2022-12-01T05:49:28.565Z,102817.63
2022-12-01T05:51:57.342Z,102812.25
2022-12-01T05:54:27.094Z,102808.75
2022-12-01T05:56:57.744Z,102817.63
2022-12-01T05:59:32.980Z,102808.94
2022-12-01T06:02:12.421Z,102812.44
2022-12-01T06:04:45.118Z,102807.94
2022-12-01T06:07:29.983Z,102813.47
2022-12-01T06:09:59.131Z,102814.28
2022-12-01T06:12:28.220Z,102813.28
2022-12-01T06:15:10.823Z,102807.72
2022-12-01T06:17:40.601Z,102823.38
2022-12-01T06:20:17.465Z,102817.84
2022-12-01T06:22:52.596Z,102820.06
2022-12-01T06:25:21.321Z,102815.75
2022-12-01T06:28:08.891Z,102813.09
2022-12-01T06:31:01.063Z,102821.53
2022-12-01T06:33:36.943Z,102821.94
2022-12-01T06:36:12.104Z,102834.53
2022-12-01T06:38:43.243Z,102834.31
2022-12-01T06:41:20.744Z,102830.44
2022-12-01T06:43:55.624Z,102831.88
2022-12-01T06:46:24.166Z,102832.94
2022-12-01T06:48:56.501Z,102824.88
2022-12-01T06:51:31.384Z,102834.38
2022-12-01T06:54:05.647Z,102831.91
2022-12-01T06:56:53.162Z,102823.06
2022-12-01T06:59:29.901Z,102826.16
2022-12-01T07:02:04.477Z,102829.06
2022-12-01T07:04:42.282Z,102829.28
2022-12-01T07:07:12.430Z,102836.09
2022-12-01T07:09:45.303Z,102836.50
2022-12-01T07:12:22.217Z,102834.22
2022-12-01T07:15:05.062Z,102833.00
2022-12-01T07:17:34.724Z,102831.09
2022-12-01T07:20:06.404Z,102832.16
2022-12-01T07:22:40.898Z,102828.03
2022-12-01T07:25:16.534Z,102826.19
2022-12-01T07:27:50.065Z,102824.72
2022-12-01T07:30:28.702Z,102828.66
2022-12-01T07:32:59.108Z,102833.00
2022-12-01T07:35:34.809Z,102835.84
2022-12-01T07:38:05.025Z,102844.56
2022-12-01T07:40:39.364Z,102843.72
2022-12-01T07:43:10.410Z,102843.94
2022-12-01T07:45:42.157Z,102850.31
2022-12-01T07:48:18.018Z,102843.09
2022-12-01T07:50:50.693Z,102840.63
2022-12-01T07:53:24.737Z,102837.75
2022-12-01T07:55:53.982Z,102844.97
2022-12-01T07:58:22.504Z,102834.22
2022-12-01T08:00:51.280Z,102840.63
2022-12-01T08:03:20.103Z,102837.94
2022-12-01T08:06:02.292Z,102836.72
2022-12-01T08:08:31.921Z,102838.34
2022-12-01T08:11:11.981Z,102837.75
2022-12-01T08:13:58.439Z,102840.63
2022-12-01T08:16:27.988Z,102842.69
2022-12-01T08:19:07.365Z,102833.38
2022-12-01T08:21:38.418Z,102837.09
2022-12-01T08:24:09.847Z,102835.66
2022-12-01T08:26:38.542Z,102835.25
2022-12-01T08:29:09.835Z,102835.25
2022-12-01T08:31:44.203Z,102838.34
2022-12-01T08:34:16.347Z,102832.94
2022-12-01T08:36:49.310Z,102832.53
2022-12-01T08:39:20.541Z,102832.53
2022-12-01T08:41:52.016Z,102833.38
2022-12-01T08:44:23.916Z,102833.13
2022-12-01T08:46:58.306Z,102838.69
2022-12-01T08:49:27.819Z,102829.63
2022-12-01T08:52:00.146Z,102826.13
2022-12-01T08:54:28.784Z,102837.25
2022-12-01T08:57:02.264Z,102822.16
2022-12-01T08:59:30.964Z,102822.16
2022-12-01T09:02:06.786Z,102827.53
2022-12-01T09:04:38.084Z,102823.78
2022-12-01T09:07:15.601Z,102829.56
2022-12-01T09:09:49.407Z,102834.09
2022-12-01T09:12:18.510Z,102831.19
2022-12-01T09:14:51.124Z,102820.44
2022-12-01T09:17:19.315Z,102829.09
2022-12-01T09:19:48.605Z,102829.72
2022-12-01T09:22:17.404Z,102826.22
2022-12-01T09:24:46.759Z,102829.53
2022-12-01T09:27:15.806Z,102830.13
2022-12-01T09:29:46.982Z,102837.78
2022-12-01T09:32:16.044Z,102837.78
2022-12-01T09:34:45.002Z,102836.50
2022-12-01T09:37:14.283Z,102836.50
2022-12-01T09:39:45.123Z,102829.09
2022-12-01T09:42:23.044Z,102832.41
2022-12-01T09:44:55.744Z,102829.47
2022-12-01T09:47:29.561Z,102817.28
2022-12-01T09:50:12.614Z,102808.16
2022-12-01T09:52:47.359Z,102810.81
2022-12-01T09:55:22.263Z,102812.00
2022-12-01T09:57:54.442Z,102810.31
2022-12-01T10:00:26.306Z,102809.66
2022-12-01T10:06:18.561Z,102810.69
2022-12-01T10:08:44.819Z,102809.19
2022-12-01T10:11:22.965Z,102804.03
2022-12-01T10:13:54.442Z,102791.84
2022-12-01T10:16:30.389Z,102795.94
2022-12-01T10:19:29.853Z,102797.78
2022-12-01T10:22:28.603Z,102797.78
2022-12-01T10:25:07.919Z,102796.88
2022-12-01T10:30:19.116Z,102789.06
2022-12-01T10:35:29.759Z,102795.81
2022-12-01T10:38:02.760Z,102788.63
2022-12-01T10:40:35.624Z,102787.59
2022-12-01T10:43:04.676Z,102786.53
2022-12-01T10:45:41.243Z,102787.34
2022-12-01T10:48:19.801Z,102785.72
2022-12-01T10:50:51.163Z,102786.97
2022-12-01T10:53:37.452Z,102795.66
2022-12-01T10:58:58.184Z,102794.53
2022-12-01T11:01:33.064Z,102794.34
2022-12-01T11:04:08.441Z,102792.84
2022-12-01T11:06:39.308Z,102792.84
2022-12-01T11:09:25.987Z,102797.63
2022-12-01T11:11:58.823Z,102802.34
2022-12-01T11:14:48.404Z,102799.44
2022-12-01T11:17:26.285Z,102796.75
2022-12-01T11:19:55.029Z,102792.59
2022-12-01T11:22:32.324Z,102792.59
2022-12-01T11:25:04.161Z,102794.84
2022-12-01T11:27:38.863Z,102791.63
2022-12-01T11:33:05.823Z,102794.44
2022-12-01T11:35:39.904Z,102786.44
2022-12-01T11:40:59.328Z,102776.34
2022-12-01T11:43:38.184Z,102781.28
2022-12-01T11:46:09.031Z,102787.88
2022-12-01T11:48:37.700Z,102771.72
2022-12-01T11:51:15.981Z,102776.88
2022-12-01T11:53:46.991Z,102777.50
2022-12-01T11:56:25.702Z,102777.50
2022-12-01T11:59:03.712Z,102772.94
2022-12-01T12:13:06.263Z,102772.16
2022-12-01T12:15:55.185Z,102776.28
2022-12-01T12:40:55.760Z,102768.59
2022-12-01T12:44:04.011Z,102772.56
2022-12-01T12:50:11.543Z,102775.63
2022-12-01T12:52:44.141Z,102768.88
2022-12-01T12:55:16.206Z,102774.72
2022-12-01T12:57:53.241Z,102774.72
2022-12-01T13:00:26.886Z,102788.41
2022-12-01T13:03:32.270Z,102781.41
2022-12-01T13:06:11.163Z,102781.41
2022-12-01T13:11:35.571Z,102775.25
2022-12-01T13:14:36.366Z,102779.19
2022-12-01T13:17:32.174Z,102779.88
2022-12-01T13:20:01.070Z,102771.66
2022-12-01T13:22:34.885Z,102775.84
2022-12-01T13:25:06.179Z,102777.09
2022-12-01T13:27:39.501Z,102775.44
2022-12-01T13:30:22.144Z,102781.66
2022-12-01T13:32:58.544Z,102772.75
2022-12-01T13:35:37.827Z,102772.97
2022-12-01T13:38:30.254Z,102776.31
2022-12-01T13:44:28.165Z,102767.69
2022-12-01T13:47:04.502Z,102770.00
2022-12-01T13:52:36.030Z,102778.06
2022-12-01T13:58:13.672Z,102770.47
2022-12-01T14:00:43.623Z,102780.84
2022-12-01T14:06:09.141Z,102770.75
2022-12-01T14:08:46.964Z,102762.09
2022-12-01T14:11:28.523Z,102755.91
2022-12-01T14:16:59.065Z,102754.72
2022-12-01T14:22:44.463Z,102751.00
2022-12-01T14:25:31.616Z,102749.81
2022-12-01T14:28:03.263Z,102749.81
2022-12-01T14:33:50.421Z,102743.88
2022-12-01T14:39:22.007Z,102748.09
2022-12-01T14:47:23.225Z,102748.53
2022-12-01T14:50:02.306Z,102733.84
2022-12-01T14:52:39.823Z,102735.75
2022-12-01T14:55:20.621Z,102738.47
2022-12-01T14:58:00.883Z,102739.50
2022-12-01T15:00:32.506Z,102737.03
2022-12-01T15:03:09.409Z,102740.94
2022-12-01T15:05:41.568Z,102751.03
2022-12-01T15:11:26.542Z,102750.19
2022-12-01T15:14:01.150Z,102750.78
2022-12-01T15:16:35.256Z,102739.03
2022-12-01T15:19:04.224Z,102738.19
2022-12-01T15:21:36.886Z,102745.63
2022-12-01T15:24:07.122Z,102737.38
2022-12-01T15:26:49.149Z,102735.50
2022-12-01T15:32:04.176Z,102732.63
2022-12-01T15:34:44.941Z,102739.03
2022-12-01T15:37:15.584Z,102748.09
2022-12-01T15:39:49.904Z,102743.75
2022-12-01T15:42:33.004Z,102734.28
2022-12-01T15:48:00.189Z,102735.75
2022-12-01T15:50:44.699Z,102731.91
2022-12-01T15:56:11.223Z,102728.41
2022-12-01T15:58:48.983Z,102728.81
2022-12-01T16:01:21.571Z,102732.31
2022-12-01T16:03:52.424Z,102732.28
2022-12-01T16:06:23.292Z,102724.69
2022-12-01T16:09:05.120Z,102732.53
2022-12-01T16:11:36.561Z,102726.97
2022-12-01T16:14:22.183Z,102730.25
2022-12-01T16:16:53.062Z,102730.25
2022-12-01T16:19:27.673Z,102725.06
2022-12-01T16:24:52.646Z,102735.16
2022-12-01T16:27:38.880Z,102735.00
2022-12-01T16:30:23.533Z,102729.66
2022-12-01T16:32:52.323Z,102732.31
2022-12-01T16:35:31.383Z,102727.38
2022-12-01T16:38:01.196Z,102727.38
2022-12-01T16:40:32.898Z,102725.31
2022-12-01T16:43:02.423Z,102726.75
2022-12-01T16:45:33.409Z,102725.34
2022-12-01T16:48:07.754Z,102731.53
2022-12-01T16:50:41.148Z,102736.88
2022-12-01T16:53:13.925Z,102736.88
2022-12-01T16:55:52.604Z,102739.94
2022-12-01T16:58:26.233Z,102737.06
2022-12-01T17:01:00.176Z,102734.38
2022-12-01T17:03:34.384Z,102734.38
2022-12-01T17:06:05.013Z,102737.25
2022-12-01T17:08:38.138Z,102737.25
2022-12-01T17:11:09.897Z,102732.69
2022-12-01T17:13:39.510Z,102726.53
2022-12-01T17:16:18.309Z,102724.28
2022-12-01T17:18:47.598Z,102727.59
2022-12-01T17:21:16.211Z,102719.94
2022-12-01T17:23:51.227Z,102718.72
2022-12-01T17:26:25.856Z,102725.31
2022-12-01T17:28:57.028Z,102730.88
2022-12-01T17:31:25.726Z,102732.31
2022-12-01T17:33:54.321Z,102719.13
2022-12-01T17:36:24.958Z,102728.59
2022-12-01T17:38:53.458Z,102732.72
2022-12-01T17:41:26.059Z,102725.06
2022-12-01T17:43:54.425Z,102724.44
2022-12-01T17:46:27.016Z,102726.50
2022-12-01T17:49:03.912Z,102721.53
2022-12-01T17:51:35.137Z,102713.69
2022-12-01T17:54:07.614Z,102716.41
2022-12-01T17:56:36.015Z,102714.16
2022-12-01T17:59:04.720Z,102720.09
2022-12-01T18:01:33.531Z,102717.03
2022-12-01T18:04:02.205Z,102721.94
2022-12-01T18:06:31.181Z,102722.34
2022-12-01T18:09:08.315Z,102715.13
2022-12-01T18:11:37.215Z,102716.16
2022-12-01T18:14:06.109Z,102713.47
2022-12-01T18:16:37.476Z,102709.56
2022-12-01T18:19:06.357Z,102701.72
2022-12-01T18:21:36.541Z,102704.81
2022-12-01T18:24:11.176Z,102698.84
2022-12-01T18:26:42.178Z,102703.59
2022-12-01T18:29:28.585Z,102696.41
2022-12-01T18:32:04.785Z,102695.13
2022-12-01T18:34:36.427Z,102699.88
2022-12-01T18:37:07.395Z,102694.69
2022-12-01T18:39:35.841Z,102693.47
2022-12-01T18:42:04.781Z,102705.63
2022-12-01T18:44:35.068Z,102702.94
2022-12-01T18:47:04.865Z,102704.78
2022-12-01T18:49:34.599Z,102712.00
2022-12-01T18:52:05.515Z,102709.56
2022-12-01T18:54:34.142Z,102705.03
2022-12-01T18:57:02.960Z,102708.72
2022-12-01T18:59:31.565Z,102701.91
2022-12-01T19:02:00.280Z,102699.28
2022-12-01T19:04:29.364Z,102699.28
2022-12-01T19:06:58.212Z,102701.31
2022-12-01T19:09:32.449Z,102696.38
2022-12-01T19:12:01.307Z,102698.69
2022-12-01T19:14:29.981Z,102701.38
2022-12-01T19:17:01.881Z,102702.81
2022-12-01T19:19:37.787Z,102702.81
2022-12-01T19:22:11.338Z,102702.78
2022-12-01T19:24:50.324Z,102701.13
2022-12-01T19:27:20.171Z,102703.38
2022-12-01T19:29:52.922Z,102704.19
2022-12-01T19:32:24.116Z,102702.75
2022-12-01T19:34:52.660Z,102703.19
2022-12-01T19:37:24.485Z,102719.50
2022-12-01T19:39:55.998Z,102724.88
2022-12-01T19:42:34.117Z,102724.88
2022-12-01T19:45:07.931Z,102717.25
2022-12-01T19:47:39.615Z,102719.13
2022-12-01T19:50:14.280Z,102723.66
2022-12-01T19:52:44.105Z,102728.59
2022-12-01T19:55:17.327Z,102728.59
2022-12-01T19:57:46.017Z,102724.47
2022-12-01T20:00:26.379Z,102720.97
2022-12-01T20:02:55.400Z,102720.97
2022-12-01T20:05:23.915Z,102739.34
2022-12-01T20:07:56.890Z,102746.38
2022-12-01T20:10:31.496Z,102753.97
2022-12-01T20:13:04.773Z,102752.53
2022-12-01T20:15:35.872Z,102757.88
2022-12-01T20:18:06.381Z,102752.53
2022-12-01T20:20:40.147Z,102752.53
2022-12-01T20:23:11.238Z,102746.78
2022-12-01T20:25:40.034Z,102748.44
2022-12-01T20:28:08.959Z,102753.41
2022-12-01T20:30:43.160Z,102753.38
2022-12-01T20:33:14.718Z,102752.97
2022-12-01T20:35:48.319Z,102752.97
2022-12-01T20:38:27.275Z,102753.59
2022-12-01T20:40:59.102Z,102762.06
2022-12-01T20:43:29.218Z,102760.81
2022-12-01T20:49:13.581Z,102756.69
2022-12-01T20:51:45.560Z,102757.50
2022-12-01T20:54:28.697Z,102757.72
2022-12-01T20:57:01.085Z,102762.28
2022-12-01T20:59:32.622Z,102753.59
2022-12-01T21:02:14.228Z,102761.25
2022-12-01T21:04:45.817Z,102771.75
2022-12-01T21:07:14.830Z,102771.56
2022-12-01T21:09:49.117Z,102762.09
2022-12-01T21:12:38.085Z,102757.94
2022-12-01T21:15:26.178Z,102756.28
2022-12-01T21:18:12.400Z,102749.50
2022-12-01T21:20:47.047Z,102745.63
2022-12-01T21:23:17.605Z,102746.44
2022-12-01T21:25:51.923Z,102754.06
2022-12-01T21:28:28.066Z,102749.13
2022-12-01T21:31:15.789Z,102745.22
2022-12-01T21:33:47.789Z,102749.75
2022-12-01T21:36:20.697Z,102745.41
2022-12-01T21:38:55.008Z,102743.13
2022-12-01T21:41:29.638Z,102733.66
2022-12-01T21:44:06.896Z,102732.00
2022-12-01T21:46:38.696Z,102729.50
2022-12-01T21:49:21.535Z,102732.78
2022-12-01T21:51:56.227Z,102725.81
2022-12-01T21:54:26.960Z,102737.31
2022-12-01T21:56:58.678Z,102737.75
2022-12-01T21:59:29.798Z,102736.69
2022-12-01T22:01:58.832Z,102736.91
2022-12-01T22:04:32.060Z,102725.81
2022-12-01T22:07:07.124Z,102726.66
2022-12-01T22:09:45.188Z,102736.91
2022-12-01T22:14:52.128Z,102733.66
2022-12-01T22:17:22.689Z,102732.00
2022-12-01T22:22:38.146Z,102727.69
2022-12-01T22:25:31.185Z,102731.81
2022-12-01T22:28:00.683Z,102738.59
2022-12-01T22:30:32.505Z,102738.19
2022-12-01T22:33:04.656Z,102741.72
2022-12-01T22:35:45.466Z,102739.63
2022-12-01T22:38:38.815Z,102741.88
2022-12-01T22:43:50.937Z,102740.66
2022-12-01T22:46:40.516Z,102733.03
2022-12-01T22:49:21.096Z,102737.78
2022-12-01T22:51:55.647Z,102732.00
2022-12-01T22:54:29.325Z,102728.72
2022-12-01T22:57:15.024Z,102724.56
2022-12-01T22:59:47.400Z,102725.63
2022-12-01T23:05:02.338Z,102720.03
2022-12-01T23:10:35.721Z,102716.13
2022-12-01T23:13:17.507Z,102718.81
2022-12-01T23:15:47.803Z,102712.25
2022-12-01T23:21:06.006Z,102706.44
2022-12-01T23:23:42.655Z,102707.69
2022-12-01T23:26:21.526Z,102715.94
2022-12-01T23:28:52.046Z,102719.00
2022-12-01T23:31:25.341Z,102720.47
2022-12-01T23:34:17.645Z,102736.31
2022-12-01T23:36:53.726Z,102729.94
2022-12-01T23:39:35.619Z,102729.50
2022-12-01T23:42:16.056Z,102729.34
2022-12-01T23:44:50.796Z,102732.00
2022-12-01T23:47:27.662Z,102723.75
2022-12-01T23:50:10.434Z,102722.31
2022-12-01T23:52:43.720Z,102720.66
2022-12-01T23:55:25.382Z,102712.00
2022-12-01T23:58:16.396Z,102716.75
